Main page
METAR-TAF:

Airports :

Lisbon, Portugal

Lisbon Portela Airport

latitude: 38-46N, longitude: 009-08W, elevation: 114 m

Current weather observation

The report was made 36 minutes ago, at 00:00 UTC
Wind 5 kt from the Northwest, varying between West and North
Temperature 19°C
Humidity 64%
Pressure 1019 hPa
Visibility 10 km or more
no clouds below 1500 m and no cumulonimbus

METAR: LPPT 280000Z 31005KT 260V350 CAVOK 19/12 Q1019

Time: 01:36 (00:36 UTC)

Forecast

The report was made 1 hour and 36 minutes ago, at 23:00 UTC
Forecast valid from 28 at 00 UTC to 29 at 06 UTC
Wind 8 kt from the North
Visibility 10 km or more
no clouds below 1500 m and no cumulonimbus
Becoming
from 28 at 14 UTC to 28 at 16 UTC
Wind 15 kt from the North/Northwest
Becoming
from 28 at 21 UTC to 28 at 23 UTC
Wind 10 kt from the North

TAF: LPPT 272300Z 2800/2906 35008KT CAVOK BECMG 2814/2816 33015KT BECMG 2821/2823 35010KT

METAR-TAF

Weather observations and forecasts of more than 4000 airports (METAR and TAF reports).

The available stations are represented by yellow and red dots on the map.

Hover mouse over dot to see the name of the station.

Then click to see weather observations and forecasts.

To change the map : click on the green buttons with a black cross to zoom in, on the green button with a dash to zoom out, or on the green arrows for adjacent maps.


METAR-TAF: